Aérodrome :
LOGIN :

S'inscrire | Disclaimer

   EN    FR    IT 

 










Légende :    VFR   VFR Marginal   IFR   IFR Intensif   IFR Très Intensif
Visi : 
Plafond : 
>= 8 km
>= 3000ft
5 à 8 km
1000 à 3000 ft
1500m à 5 km
500 à 1000 ft
800 à 1500m
200 à 500 ft
< 800m
< 200 ft
Symboles :   Orages  Brouillard  Fortes neiges  Fortes précipitations  Vent > 20 kt
SIGMETs :   Divers  Orages  Givrage  Turbulence  Onde Orograph.  Cendres Volcan.







- Altitude de l'aérodrome : 423 ft
- Code IATA : PIS
- Voir les cartes d'approche


LFBI - Poitiers

DERNIER METAR :
  • 280300Z AUTO 21011KT 9999 FEW013/// BKN031/// BKN048/// 06/04 Q1000 TEMPO 25020G35KT 2500 SHRA BKN012 BKN020TCU

METARs EXPIRÉS :
  • 280230Z AUTO 25006KT 210V290 9999 -RA FEW015/// BKN027/// BKN038/// 05/04 Q1000 TEMPO 25020G35KT 2500 SHRA BKN012 BKN020TCU
  • 280200Z AUTO 21011KT 9999 SCT035/// SCT052/// BKN070/// 05/04 Q1001 TEMPO 25020G35KT 2500 SHRA BKN012 BKN020TCU
  • 280130Z AUTO 22011KT 9999 NCD 05/03 Q1001 TEMPO 25020G35KT 2500 SHRA BKN012 BKN020TCU
  • 280100Z AUTO 22014KT 190V250 9999 FEW010/// BKN039/// BKN049/// 05/03 Q1001 TEMPO 25020G35KT 2500 SHRA BKN012 BKN020TCU
  • 280030Z AUTO 22013KT 9999 NCD 05/02 Q1001 TEMPO 25020G35KT 2500 SHRA BKN012 BKN020TCU

TAF TAF LFBI
Valide du 28 à 00h jusqu'au 01 à 00h UTC


272300Z 2800/2824 25015G25KT 9999 BKN040
TEMPO 2800/2810 25020G35KT 2500 SHRA BKN012 BKN020TCU
TEMPO 2810/2817 25020G35KT 4500 SHRA SCT012 BKN030TCU
PROB30
TEMPO 2812/2816 28030G50KT 1200 -TSRA SCT008 BKN020CB
BECMG 2817/2819 24013KT
PROB40
TEMPO 2821/2824 4500 -SHRA BKN025TCU
Pas de NOTAMs connus pour ce terrain.
1 SIGMET publié pour la FIR Bordeaux (LFBB) :
 
Turbulence forte
LFBB SIGMET 6 VALID 280000/280400 LFPW
LFBB BORDEAUX FIR/UIR SEV TURB FCST W OF LINE N4300 W00100 - N4630 W00100 SFC/FL060 STNR NC=



MET'MAP, la Météo Aéronautique d'un coup d'oeil ! - Copyright ORBIFLY Décembre 2007 - Disclaimer

ORBIFLY MET'MAP TEAM :

Programmation & Développement : Alexandra Zaïnal
Conception & Développement : Baudouin d'Aumeries
Co-Programmation & Développement : Marc-Olivier Méhu
Soutien technique & logistique : Manuel Goepfert

Contact : metmap@orbifly.com




SOURCES & CREDITS :

   NOAA